KBKT/BKT METAR and TAF weather

Enter ICAO airport designator
Station Type Date Time Source
KBKT METAR 2018/12/13 15:35 UTC NOAA

KBKT 131535Z AUTO 18003KT 10SM OVC070 03/00 A3030 RMK AO1 T00331001


Station Type Date Time Source
KBKT Decoded METAR 2018/12/13 15:35 UTC NOAA

Ft. Pickett / Blackstone, VA, United States (KBKT) 37-05N 077-57W
Dec 13, 2018 - 10:35 AM EST / 2018.12.13 1535 UTC
Wind: from the S (180 degrees) at 3 MPH (3 KT):0
Visibility: 10 mile(s):0
Sky conditions: overcast
Temperature: 37.9 F (3.3 C)
Dew Point: 31.8 F (-0.1 C)
Relative Humidity: 78%
Pressure (altimeter): 30.3 in. Hg (1026 hPa)
ob: KBKT 131535Z AUTO 18003KT 10SM OVC070 03/00 A3030 RMK AO1 T00331001
cycle: 15

Station Type Date Time Source
KBKT TAF UTC NOAA

Error!


Example: see airport list